createdAt,value
2017-10-18T00:00:30.515Z,72.46
2017-10-18T00:02:56.321Z,72.68
2017-10-18T00:05:22.083Z,72.75
2017-10-18T00:07:47.840Z,72.69
2017-10-18T00:10:13.599Z,72.80
2017-10-18T00:12:39.365Z,73.30
2017-10-18T00:15:05.190Z,73.90
2017-10-18T00:17:30.986Z,73.82
2017-10-18T00:19:56.754Z,74.16
2017-10-18T00:22:24.536Z,74.62
2017-10-18T00:24:50.372Z,74.76
2017-10-18T00:27:16.132Z,75.03
2017-10-18T00:29:41.943Z,74.33
2017-10-18T00:32:07.711Z,74.08
2017-10-18T00:34:33.491Z,73.57
2017-10-18T00:36:59.243Z,73.98
2017-10-18T00:39:25.067Z,74.65
2017-10-18T00:41:50.823Z,74.70
2017-10-18T00:44:16.578Z,74.59
2017-10-18T00:46:42.339Z,74.68
2017-10-18T00:49:08.125Z,74.92
2017-10-18T00:51:33.902Z,75.37
2017-10-18T00:53:59.659Z,74.70
2017-10-18T00:56:25.398Z,74.56
2017-10-18T00:58:51.158Z,74.24
2017-10-18T01:01:16.931Z,74.32
2017-10-18T01:03:42.684Z,74.09
2017-10-18T01:06:08.466Z,74.02
2017-10-18T01:08:34.224Z,73.24
2017-10-18T01:10:59.991Z,73.55
2017-10-18T01:13:25.740Z,73.90
2017-10-18T01:15:51.510Z,74.18
2017-10-18T01:18:17.268Z,74.21
2017-10-18T01:20:43.026Z,74.72
2017-10-18T01:23:08.779Z,74.70
2017-10-18T01:25:34.559Z,75.41
2017-10-18T01:28:00.332Z,74.72
2017-10-18T01:30:26.166Z,74.65
2017-10-18T01:32:51.911Z,75.26
2017-10-18T01:35:18.747Z,75.22
2017-10-18T01:37:44.518Z,74.82
2017-10-18T01:40:10.391Z,75.00
2017-10-18T01:42:36.138Z,74.51
2017-10-18T01:45:01.888Z,75.30
2017-10-18T01:47:27.667Z,75.80
2017-10-18T01:49:53.411Z,75.23
2017-10-18T01:52:19.157Z,75.07
2017-10-18T01:54:44.926Z,75.39
2017-10-18T01:57:10.711Z,76.23
2017-10-18T01:59:36.470Z,75.67
2017-10-18T02:02:02.219Z,75.24
2017-10-18T02:04:27.970Z,75.40
2017-10-18T02:06:53.718Z,75.22
2017-10-18T02:09:19.500Z,75.25
2017-10-18T02:11:45.255Z,75.41
2017-10-18T02:14:11.015Z,76.38
2017-10-18T02:16:36.775Z,77.99
2017-10-18T02:19:02.559Z,79.07
2017-10-18T02:21:28.319Z,78.48
2017-10-18T02:23:54.067Z,77.70
2017-10-18T02:26:19.838Z,76.84
2017-10-18T02:28:45.618Z,75.88
2017-10-18T02:31:11.358Z,75.94
2017-10-18T02:33:37.216Z,76.75
2017-10-18T02:36:03.003Z,74.79
2017-10-18T02:38:28.794Z,74.96
2017-10-18T02:40:54.558Z,75.57
2017-10-18T02:43:20.341Z,76.44
2017-10-18T02:45:46.115Z,76.73
2017-10-18T02:48:11.860Z,76.21
2017-10-18T02:50:37.627Z,77.17
2017-10-18T02:53:03.415Z,77.77
2017-10-18T02:55:29.174Z,77.38
2017-10-18T02:57:54.909Z,76.67
2017-10-18T03:00:20.684Z,76.13
2017-10-18T03:02:46.421Z,76.14
2017-10-18T03:05:12.195Z,76.12
2017-10-18T03:07:37.967Z,76.33
2017-10-18T03:10:03.712Z,76.40
2017-10-18T03:12:29.487Z,76.28
2017-10-18T03:14:55.258Z,76.19
2017-10-18T03:17:21.011Z,75.80
2017-10-18T03:19:46.805Z,76.23
2017-10-18T03:22:12.547Z,75.60
2017-10-18T03:24:38.315Z,75.54
2017-10-18T03:27:04.080Z,75.95
2017-10-18T03:29:29.856Z,76.56
2017-10-18T03:31:55.640Z,75.92
2017-10-18T03:34:21.499Z,75.72
2017-10-18T03:36:47.295Z,76.06
2017-10-18T03:39:13.181Z,75.92
2017-10-18T03:41:38.924Z,75.59
2017-10-18T03:44:04.694Z,75.69
2017-10-18T03:46:30.451Z,75.97
2017-10-18T03:48:56.260Z,76.42
2017-10-18T03:51:22.020Z,76.26
2017-10-18T03:53:47.807Z,75.92
2017-10-18T03:56:13.622Z,76.11
2017-10-18T03:58:39.360Z,76.14
2017-10-18T04:01:05.132Z,75.70
2017-10-18T04:03:30.894Z,75.54
2017-10-18T04:05:56.752Z,75.58
2017-10-18T04:08:22.510Z,75.51
2017-10-18T04:10:48.358Z,75.64
2017-10-18T04:13:14.108Z,76.29
2017-10-18T04:15:39.879Z,75.78
2017-10-18T04:18:05.651Z,75.86
2017-10-18T04:20:31.414Z,76.21
2017-10-18T04:22:57.235Z,76.13
2017-10-18T04:25:23.006Z,75.91
2017-10-18T04:27:50.696Z,75.98
2017-10-18T04:33:06.751Z,76.43
2017-10-18T04:38:22.895Z,76.77
2017-10-18T04:40:48.648Z,76.77
2017-10-18T04:43:25.407Z,76.53
2017-10-18T04:45:52.327Z,76.29
2017-10-18T04:48:18.090Z,76.47
2017-10-18T04:50:43.871Z,76.21
2017-10-18T04:53:09.623Z,75.39
2017-10-18T04:55:35.364Z,75.63
2017-10-18T04:58:01.136Z,76.09
2017-10-18T05:03:25.023Z,76.01
2017-10-18T05:05:50.808Z,76.67
2017-10-18T05:08:16.579Z,76.54
2017-10-18T05:10:42.380Z,76.90
2017-10-18T05:13:08.146Z,77.00
2017-10-18T05:15:33.920Z,77.00
2017-10-18T05:17:59.684Z,76.34
2017-10-18T05:20:25.467Z,76.06
2017-10-18T05:22:51.223Z,75.88
2017-10-18T05:25:17.000Z,75.70
2017-10-18T05:27:42.807Z,76.83
2017-10-18T05:30:08.585Z,76.53
2017-10-18T05:32:34.351Z,76.02
2017-10-18T05:35:00.111Z,76.09
2017-10-18T05:37:25.863Z,77.21
2017-10-18T05:39:51.629Z,77.09
2017-10-18T05:42:17.386Z,77.46
2017-10-18T05:44:43.139Z,77.80
2017-10-18T05:47:08.887Z,77.54
2017-10-18T05:49:34.643Z,78.16
2017-10-18T05:52:00.395Z,79.35
2017-10-18T05:54:26.147Z,79.76
2017-10-18T05:56:51.907Z,78.66
2017-10-18T05:59:17.702Z,78.23
2017-10-18T06:01:43.466Z,77.73
2017-10-18T06:04:09.210Z,77.35
2017-10-18T06:06:34.969Z,78.13
2017-10-18T06:09:00.731Z,78.31
2017-10-18T06:11:26.464Z,78.01
2017-10-18T06:13:52.214Z,78.60
2017-10-18T06:16:17.976Z,76.76
2017-10-18T06:18:43.790Z,76.61
2017-10-18T06:21:09.562Z,77.31
2017-10-18T06:23:35.346Z,76.98
2017-10-18T06:26:01.155Z,76.55
2017-10-18T06:28:26.986Z,75.13
2017-10-18T06:30:52.763Z,75.48
2017-10-18T06:33:18.534Z,75.62
2017-10-18T06:35:44.326Z,75.39
2017-10-18T06:38:10.095Z,75.81
2017-10-18T06:40:35.853Z,74.82
2017-10-18T06:43:01.631Z,73.34
2017-10-18T06:45:27.406Z,72.05
2017-10-18T06:47:53.159Z,70.77
2017-10-18T06:50:18.916Z,66.73
2017-10-18T06:52:44.687Z,63.65
2017-10-18T06:55:10.438Z,61.32
2017-10-18T06:57:36.226Z,57.76
2017-10-18T07:00:02.003Z,55.88
2017-10-18T07:02:27.796Z,54.97
2017-10-18T07:04:53.574Z,51.80
2017-10-18T07:07:19.320Z,50.22
2017-10-18T07:09:45.099Z,50.73
2017-10-18T07:12:10.847Z,49.11
2017-10-18T07:14:36.639Z,47.89
2017-10-18T07:17:02.395Z,48.72
2017-10-18T07:19:28.166Z,46.93
2017-10-18T07:21:53.942Z,47.24
2017-10-18T07:24:19.700Z,45.43
2017-10-18T07:26:45.467Z,45.63
2017-10-18T07:29:11.227Z,45.97
2017-10-18T07:31:36.979Z,48.26
2017-10-18T07:34:02.751Z,47.80
2017-10-18T07:36:28.491Z,48.96
2017-10-18T07:38:54.242Z,50.36
2017-10-18T07:41:20.031Z,50.81
2017-10-18T07:43:45.776Z,52.29
2017-10-18T07:46:11.514Z,50.76
2017-10-18T07:48:37.292Z,48.77
2017-10-18T07:51:03.038Z,45.41
2017-10-18T07:53:28.814Z,44.61
2017-10-18T07:55:54.599Z,43.57
2017-10-18T07:58:20.359Z,43.36
2017-10-18T08:00:46.124Z,42.94
2017-10-18T08:03:11.895Z,42.25
2017-10-18T08:05:37.674Z,41.83
2017-10-18T08:08:03.483Z,40.69
2017-10-18T08:10:29.251Z,39.51
2017-10-18T08:12:55.007Z,37.57
2017-10-18T08:15:20.801Z,36.47
2017-10-18T08:17:46.556Z,38.20
2017-10-18T08:20:12.310Z,37.25
2017-10-18T08:22:38.193Z,36.13
2017-10-18T08:25:03.975Z,35.83
2017-10-18T08:27:29.718Z,36.14
2017-10-18T08:29:55.479Z,36.78
2017-10-18T08:32:21.310Z,37.68
2017-10-18T08:34:47.099Z,37.32
2017-10-18T08:37:12.864Z,34.22
2017-10-18T08:39:38.659Z,32.59
2017-10-18T08:42:04.434Z,31.80
2017-10-18T08:44:30.199Z,32.24
2017-10-18T08:46:55.955Z,33.14
2017-10-18T08:49:21.747Z,33.95
2017-10-18T08:51:47.511Z,34.20
2017-10-18T08:54:13.278Z,33.78
2017-10-18T08:56:39.058Z,33.20
2017-10-18T08:59:04.827Z,32.21
2017-10-18T09:01:30.563Z,32.10
2017-10-18T09:03:56.351Z,31.39
2017-10-18T09:06:22.147Z,31.94
2017-10-18T09:08:47.904Z,33.05
2017-10-18T09:11:13.651Z,32.00
2017-10-18T09:13:39.458Z,31.52
2017-10-18T09:16:05.230Z,32.42
2017-10-18T09:18:30.983Z,31.97
2017-10-18T09:20:56.744Z,30.57
2017-10-18T09:23:22.530Z,29.47
2017-10-18T09:25:48.279Z,29.62
2017-10-18T09:28:14.018Z,28.38
2017-10-18T09:30:39.783Z,28.38
2017-10-18T09:33:05.559Z,29.48
2017-10-18T09:35:31.313Z,29.80
2017-10-18T09:37:57.059Z,30.51
2017-10-18T09:40:22.815Z,30.12
2017-10-18T09:42:48.576Z,29.88
2017-10-18T09:45:14.326Z,29.82
2017-10-18T09:47:40.088Z,31.73
2017-10-18T09:50:05.860Z,35.10
2017-10-18T09:52:31.601Z,34.72
2017-10-18T09:54:57.371Z,33.48
2017-10-18T09:57:23.122Z,32.70
2017-10-18T09:59:48.896Z,32.07
2017-10-18T10:02:14.645Z,29.50
2017-10-18T10:04:40.385Z,26.03
2017-10-18T10:07:06.159Z,26.09
2017-10-18T10:09:31.907Z,25.70
2017-10-18T10:11:57.647Z,25.89
2017-10-18T10:14:23.423Z,24.51
2017-10-18T10:16:49.181Z,23.29
2017-10-18T10:19:14.984Z,21.81
2017-10-18T10:21:40.727Z,23.03
2017-10-18T10:24:06.483Z,23.99
2017-10-18T10:26:32.251Z,23.40
2017-10-18T10:28:58.004Z,24.04
2017-10-18T10:31:23.783Z,21.54
2017-10-18T10:33:49.527Z,22.26
2017-10-18T10:36:15.268Z,22.98
2017-10-18T10:38:41.049Z,22.72
2017-10-18T10:41:06.806Z,23.50
2017-10-18T10:43:32.571Z,24.10
2017-10-18T10:45:58.327Z,24.83
2017-10-18T10:48:24.159Z,25.95
2017-10-18T10:50:49.908Z,26.22
2017-10-18T10:53:15.695Z,24.42
2017-10-18T10:55:41.451Z,23.88
2017-10-18T10:58:07.211Z,24.75
2017-10-18T11:00:32.987Z,25.03
2017-10-18T11:02:58.737Z,25.24
2017-10-18T11:05:24.527Z,24.68
2017-10-18T11:07:50.297Z,23.48
2017-10-18T11:10:16.087Z,24.33
2017-10-18T11:12:41.833Z,23.80
2017-10-18T11:15:07.600Z,24.82
2017-10-18T11:17:33.379Z,24.92
2017-10-18T11:19:59.136Z,24.67
2017-10-18T11:22:26.738Z,26.00
2017-10-18T11:24:52.495Z,25.28
2017-10-18T11:27:18.237Z,25.25
2017-10-18T11:29:44.015Z,25.34
2017-10-18T11:32:09.791Z,25.43
2017-10-18T11:34:35.563Z,24.80
2017-10-18T11:37:01.313Z,25.29
2017-10-18T11:39:27.091Z,24.93
2017-10-18T11:41:52.835Z,25.33
2017-10-18T11:44:18.578Z,25.44
2017-10-18T11:46:44.323Z,24.08
2017-10-18T11:49:10.072Z,25.10
2017-10-18T11:51:35.848Z,24.60
2017-10-18T11:54:01.593Z,24.43
2017-10-18T11:56:27.343Z,24.63
2017-10-18T11:58:53.136Z,24.10
2017-10-18T12:01:18.950Z,24.71
2017-10-18T12:03:44.727Z,24.95
2017-10-18T12:06:10.497Z,24.08
2017-10-18T12:08:36.237Z,24.50
2017-10-18T12:11:02.007Z,25.22
2017-10-18T12:13:27.788Z,25.74
2017-10-18T12:15:53.558Z,26.14
2017-10-18T12:18:19.334Z,25.14
2017-10-18T12:20:46.082Z,25.96
2017-10-18T12:23:11.847Z,25.43
2017-10-18T12:25:37.603Z,24.98
2017-10-18T12:28:03.368Z,25.50
2017-10-18T12:30:29.112Z,24.94
2017-10-18T12:32:54.899Z,24.44
2017-10-18T12:35:20.678Z,24.57
2017-10-18T12:37:46.426Z,26.34
2017-10-18T12:40:12.183Z,26.00
2017-10-18T12:42:37.949Z,26.11
2017-10-18T12:45:03.692Z,27.54
2017-10-18T12:47:29.452Z,30.03
2017-10-18T12:49:55.244Z,27.51
2017-10-18T12:52:21.039Z,26.04
2017-10-18T12:54:46.791Z,29.13
2017-10-18T12:57:12.545Z,29.17
2017-10-18T12:59:38.388Z,28.42
2017-10-18T13:02:04.167Z,27.93
2017-10-18T13:04:29.947Z,26.03
2017-10-18T13:06:55.705Z,26.56
2017-10-18T13:09:21.461Z,26.76
2017-10-18T13:11:47.203Z,26.72
2017-10-18T13:14:12.981Z,25.91
2017-10-18T13:16:38.751Z,24.35
2017-10-18T13:19:04.522Z,23.75
2017-10-18T13:21:30.258Z,23.26
2017-10-18T13:23:56.030Z,24.58
2017-10-18T13:26:21.792Z,25.43
2017-10-18T13:28:47.551Z,24.70
2017-10-18T13:31:13.519Z,24.78
2017-10-18T13:33:39.335Z,23.19
2017-10-18T13:36:05.278Z,26.06
2017-10-18T13:38:31.099Z,27.90
2017-10-18T13:40:56.870Z,27.58
2017-10-18T13:43:22.649Z,27.40
2017-10-18T13:45:48.438Z,26.88
2017-10-18T13:48:14.183Z,27.30
2017-10-18T13:50:39.926Z,27.08
2017-10-18T13:53:05.680Z,28.51
2017-10-18T13:55:31.424Z,29.14
2017-10-18T13:57:57.187Z,28.85
2017-10-18T14:00:22.934Z,29.05
2017-10-18T14:02:48.723Z,29.21
2017-10-18T14:05:14.470Z,29.80
2017-10-18T14:07:40.260Z,29.40
2017-10-18T14:10:06.008Z,28.93
2017-10-18T14:12:31.759Z,29.10
2017-10-18T14:14:57.561Z,29.14
2017-10-18T14:17:23.408Z,29.59
2017-10-18T14:19:49.163Z,29.46
2017-10-18T14:22:14.927Z,29.57
2017-10-18T14:24:40.718Z,29.47
2017-10-18T14:27:06.475Z,29.20
2017-10-18T14:29:32.244Z,30.01
2017-10-18T14:31:58.021Z,29.54
2017-10-18T14:34:23.788Z,29.74
2017-10-18T14:36:49.541Z,30.08
2017-10-18T14:39:15.287Z,29.86
2017-10-18T14:41:41.072Z,29.98
2017-10-18T14:44:06.812Z,29.58
2017-10-18T14:46:32.655Z,29.96
2017-10-18T14:48:58.415Z,30.13
2017-10-18T14:51:24.173Z,30.29
2017-10-18T14:53:49.939Z,30.00
2017-10-18T14:56:15.675Z,30.95
2017-10-18T14:58:41.446Z,31.01
2017-10-18T15:01:07.235Z,31.34
2017-10-18T15:03:32.981Z,31.65
2017-10-18T15:05:58.747Z,31.36
2017-10-18T15:08:24.619Z,31.18
2017-10-18T15:10:50.400Z,30.73
2017-10-18T15:13:16.256Z,30.89
2017-10-18T15:15:42.067Z,30.77
2017-10-18T15:18:07.891Z,31.02
2017-10-18T15:20:33.681Z,30.60
2017-10-18T15:22:59.528Z,30.49
2017-10-18T15:25:25.388Z,30.35
2017-10-18T15:27:51.175Z,30.80
2017-10-18T15:30:16.951Z,31.32
2017-10-18T15:32:42.747Z,31.56
2017-10-18T15:35:08.490Z,32.07
2017-10-18T15:37:34.288Z,32.04
2017-10-18T15:40:00.077Z,31.86
2017-10-18T15:42:25.819Z,32.08
2017-10-18T15:44:51.684Z,32.37
2017-10-18T15:47:17.448Z,32.51
2017-10-18T15:49:43.191Z,33.00
2017-10-18T15:52:09.026Z,33.38
2017-10-18T15:54:34.775Z,33.63
2017-10-18T15:57:00.547Z,33.83
2017-10-18T15:59:26.363Z,34.33
2017-10-18T16:01:52.135Z,34.87
2017-10-18T16:04:17.879Z,35.50
2017-10-18T16:06:43.660Z,35.79
2017-10-18T16:09:09.495Z,36.17
2017-10-18T16:11:35.249Z,36.89
2017-10-18T16:14:01.028Z,37.55
2017-10-18T16:16:26.799Z,38.31
2017-10-18T16:18:52.583Z,39.34
2017-10-18T16:21:18.360Z,40.31
2017-10-18T16:23:44.142Z,40.96
2017-10-18T16:26:09.942Z,42.01
2017-10-18T16:28:35.686Z,42.01
2017-10-18T16:31:01.431Z,42.70
2017-10-18T16:33:27.207Z,43.02
2017-10-18T16:35:52.964Z,43.45
2017-10-18T16:38:18.734Z,43.84
2017-10-18T16:40:44.487Z,44.46
2017-10-18T16:43:10.276Z,45.22
2017-10-18T16:45:36.042Z,46.22
2017-10-18T16:48:01.814Z,46.74
2017-10-18T16:50:27.607Z,47.97
2017-10-18T16:52:53.360Z,48.27
2017-10-18T16:55:19.120Z,48.97
2017-10-18T16:57:44.886Z,49.50
2017-10-18T17:00:11.556Z,50.06
2017-10-18T17:02:37.310Z,50.41
2017-10-18T17:05:03.065Z,50.75
2017-10-18T17:07:28.862Z,51.03
2017-10-18T17:09:54.625Z,51.36
2017-10-18T17:12:20.426Z,51.66
2017-10-18T17:14:46.198Z,52.00
2017-10-18T17:17:11.987Z,52.36
2017-10-18T17:19:37.747Z,52.33
2017-10-18T17:22:03.527Z,52.89
2017-10-18T17:24:29.278Z,53.22
2017-10-18T17:26:55.043Z,53.61
2017-10-18T17:29:20.830Z,54.29
2017-10-18T17:31:46.588Z,55.63
2017-10-18T17:34:12.470Z,56.14
2017-10-18T17:36:38.233Z,56.79
2017-10-18T17:39:04.039Z,56.75
2017-10-18T17:41:29.802Z,57.12
2017-10-18T17:43:55.578Z,57.75
2017-10-18T17:46:21.343Z,58.33
2017-10-18T17:48:47.192Z,58.65
2017-10-18T17:51:12.951Z,58.85
2017-10-18T17:53:38.699Z,58.74
2017-10-18T17:56:04.480Z,58.57
2017-10-18T17:58:30.247Z,57.52
2017-10-18T18:00:56.006Z,57.25
2017-10-18T18:03:21.804Z,57.67
2017-10-18T18:05:47.569Z,57.58
2017-10-18T18:08:13.351Z,58.24
2017-10-18T18:10:39.367Z,58.80
2017-10-18T18:13:06.093Z,59.16
2017-10-18T18:15:31.899Z,59.72
2017-10-18T18:17:57.994Z,59.83
2017-10-18T18:20:23.746Z,60.25
2017-10-18T18:22:49.507Z,60.21
2017-10-18T18:25:15.270Z,60.10
2017-10-18T18:27:41.023Z,60.75
2017-10-18T18:30:06.767Z,61.34
2017-10-18T18:32:32.536Z,61.54
2017-10-18T18:34:58.335Z,61.84
2017-10-18T18:37:24.127Z,62.20
2017-10-18T18:39:49.919Z,62.00
2017-10-18T18:42:15.714Z,61.93
2017-10-18T18:44:41.491Z,61.98
2017-10-18T18:47:07.237Z,62.29
2017-10-18T18:49:33.008Z,62.49
2017-10-18T18:51:58.783Z,62.84
2017-10-18T18:54:24.534Z,63.01
2017-10-18T18:56:50.328Z,63.02
2017-10-18T18:59:16.076Z,63.00
2017-10-18T19:01:41.855Z,63.36
2017-10-18T19:04:07.649Z,63.81
2017-10-18T19:06:33.446Z,64.04
2017-10-18T19:08:59.227Z,64.02
2017-10-18T19:11:24.963Z,63.78
2017-10-18T19:13:50.722Z,63.97
2017-10-18T19:16:16.523Z,63.89
2017-10-18T19:18:42.295Z,64.07
2017-10-18T19:21:08.046Z,63.84
2017-10-18T19:23:33.838Z,64.05
2017-10-18T19:25:59.631Z,64.27
2017-10-18T19:28:25.389Z,64.25
2017-10-18T19:30:51.143Z,64.35
2017-10-18T19:33:16.915Z,64.38
2017-10-18T19:35:42.698Z,64.92
2017-10-18T19:38:08.450Z,65.59
2017-10-18T19:40:34.212Z,65.90
2017-10-18T19:43:00.003Z,65.92
2017-10-18T19:45:25.768Z,65.60
2017-10-18T19:47:51.544Z,65.91
2017-10-18T19:50:17.296Z,65.83
2017-10-18T19:52:43.066Z,65.84
2017-10-18T19:55:08.840Z,65.68
2017-10-18T19:57:34.616Z,65.68
2017-10-18T20:00:00.375Z,66.17
2017-10-18T20:02:26.126Z,66.76
2017-10-18T20:04:51.915Z,67.11
2017-10-18T20:07:17.691Z,67.18
2017-10-18T20:09:43.443Z,67.18
2017-10-18T20:12:09.231Z,67.27
2017-10-18T20:14:34.989Z,67.62
2017-10-18T20:17:00.741Z,68.26
2017-10-18T20:19:26.515Z,68.27
2017-10-18T20:21:52.262Z,68.08
2017-10-18T20:24:18.043Z,67.95
2017-10-18T20:26:43.810Z,67.73
2017-10-18T20:29:09.562Z,66.95
2017-10-18T20:31:35.311Z,66.94
2017-10-18T20:34:01.107Z,67.58
2017-10-18T20:36:26.879Z,68.01
2017-10-18T20:38:52.635Z,68.17
2017-10-18T20:41:22.039Z,68.66
2017-10-18T20:43:47.803Z,68.78
2017-10-18T20:46:13.575Z,68.66
2017-10-18T20:48:39.359Z,68.83
2017-10-18T20:51:05.159Z,69.03
2017-10-18T20:53:30.924Z,69.49
2017-10-18T20:55:56.710Z,69.16
2017-10-18T20:58:22.468Z,69.26
2017-10-18T21:00:48.346Z,70.06
2017-10-18T21:03:14.239Z,70.04
2017-10-18T21:05:40.063Z,70.42
2017-10-18T21:08:05.859Z,70.95
2017-10-18T21:10:31.647Z,70.46
2017-10-18T21:12:57.415Z,70.45
2017-10-18T21:15:23.188Z,70.52
2017-10-18T21:17:49.011Z,70.00
2017-10-18T21:20:14.771Z,70.06
2017-10-18T21:22:41.034Z,69.85
2017-10-18T21:25:06.855Z,70.08
2017-10-18T21:27:32.670Z,70.29
2017-10-18T21:29:58.432Z,70.24
2017-10-18T21:32:24.264Z,70.10
2017-10-18T21:34:50.123Z,70.09
2017-10-18T21:37:15.940Z,70.40
2017-10-18T21:39:41.726Z,70.57
2017-10-18T21:42:07.479Z,70.50
2017-10-18T21:44:33.243Z,70.57
2017-10-18T21:46:59.082Z,71.50
2017-10-18T21:49:25.711Z,71.26
2017-10-18T21:51:51.459Z,71.22
2017-10-18T21:54:17.228Z,72.63
2017-10-18T21:56:42.976Z,73.03
2017-10-18T21:59:08.742Z,72.45
2017-10-18T22:01:34.567Z,71.66
2017-10-18T22:04:00.315Z,71.41
2017-10-18T22:06:26.060Z,73.23
2017-10-18T22:08:51.887Z,73.97
2017-10-18T22:11:17.651Z,74.54
2017-10-18T22:13:43.435Z,74.64
2017-10-18T22:16:09.181Z,74.22
2017-10-18T22:18:34.932Z,73.76
2017-10-18T22:21:00.707Z,73.56
2017-10-18T22:23:27.511Z,73.10
2017-10-18T22:25:53.258Z,72.53
2017-10-18T22:28:19.166Z,72.24
2017-10-18T22:30:44.920Z,72.48
2017-10-18T22:33:10.673Z,72.40
2017-10-18T22:35:36.451Z,73.00
2017-10-18T22:38:02.252Z,72.90
2017-10-18T22:40:28.007Z,73.05
2017-10-18T22:42:53.795Z,73.05
2017-10-18T22:45:19.559Z,73.17
2017-10-18T22:47:45.307Z,72.98
2017-10-18T22:50:11.167Z,73.32
2017-10-18T22:52:43.099Z,73.03
2017-10-18T22:55:08.895Z,72.39
2017-10-18T22:57:34.667Z,72.12
2017-10-18T23:00:00.435Z,71.84
2017-10-18T23:02:26.219Z,71.91
2017-10-18T23:04:51.963Z,72.10
2017-10-18T23:07:17.715Z,72.25
2017-10-18T23:09:43.490Z,71.96
2017-10-18T23:12:09.240Z,71.93
2017-10-18T23:14:35.028Z,72.19
2017-10-18T23:17:00.799Z,73.07
2017-10-18T23:19:26.571Z,72.84
2017-10-18T23:21:52.330Z,72.80
2017-10-18T23:24:18.111Z,73.13
2017-10-18T23:26:43.871Z,72.76
2017-10-18T23:29:09.644Z,72.86
2017-10-18T23:31:35.439Z,73.21
2017-10-18T23:34:01.180Z,72.44
2017-10-18T23:36:26.970Z,72.36
2017-10-18T23:38:52.711Z,72.81
2017-10-18T23:41:18.474Z,72.23
2017-10-18T23:43:44.315Z,71.48
2017-10-18T23:46:10.111Z,71.32
2017-10-18T23:48:35.854Z,71.04
2017-10-18T23:51:01.650Z,70.54
2017-10-18T23:53:27.420Z,70.22
2017-10-18T23:55:53.179Z,70.00
2017-10-18T23:58:18.916Z,69.63
